sensor_id;sensor_type;location;lat;lon;timestamp;P1;durP1;ratioP1;P2;durP2;ratioP2
72286;SDS011;60221;45.696;16.076;2022-10-17T00:00:49;33.73;;;18.53;;
72286;SDS011;60221;45.696;16.076;2022-10-17T00:03:16;37.00;;;21.65;;
72286;SDS011;60221;45.696;16.076;2022-10-17T00:05:44;32.90;;;18.27;;
72286;SDS011;60221;45.696;16.076;2022-10-17T00:08:13;33.65;;;17.90;;
72286;SDS011;60221;45.696;16.076;2022-10-17T00:10:42;31.65;;;18.45;;
72286;SDS011;60221;45.696;16.076;2022-10-17T00:13:09;30.17;;;17.00;;
72286;SDS011;60221;45.696;16.076;2022-10-17T00:15:36;30.70;;;17.87;;
72286;SDS011;60221;45.696;16.076;2022-10-17T00:18:03;38.05;;;19.73;;
72286;SDS011;60221;45.696;16.076;2022-10-17T00:20:29;33.70;;;18.27;;
72286;SDS011;60221;45.696;16.076;2022-10-17T00:22:57;32.93;;;17.23;;
72286;SDS011;60221;45.696;16.076;2022-10-17T00:25:23;30.83;;;16.47;;
72286;SDS011;60221;45.696;16.076;2022-10-17T00:27:49;28.07;;;17.17;;
72286;SDS011;60221;45.696;16.076;2022-10-17T00:30:16;32.10;;;17.12;;
72286;SDS011;60221;45.696;16.076;2022-10-17T00:32:43;31.23;;;17.43;;
72286;SDS011;60221;45.696;16.076;2022-10-17T00:35:09;28.80;;;16.30;;
72286;SDS011;60221;45.696;16.076;2022-10-17T00:37:36;29.52;;;17.27;;
72286;SDS011;60221;45.696;16.076;2022-10-17T00:40:02;26.65;;;16.27;;
72286;SDS011;60221;45.696;16.076;2022-10-17T00:42:31;30.77;;;16.50;;
72286;SDS011;60221;45.696;16.076;2022-10-17T00:45:17;31.20;;;16.40;;
72286;SDS011;60221;45.696;16.076;2022-10-17T00:48:05;24.65;;;15.20;;
72286;SDS011;60221;45.696;16.076;2022-10-17T00:50:35;28.98;;;15.90;;
72286;SDS011;60221;45.696;16.076;2022-10-17T00:53:06;31.25;;;16.93;;
72286;SDS011;60221;45.696;16.076;2022-10-17T00:55:35;28.03;;;17.33;;
72286;SDS011;60221;45.696;16.076;2022-10-17T00:58:15;28.40;;;15.80;;
72286;SDS011;60221;45.696;16.076;2022-10-17T01:00:42;28.38;;;15.72;;
72286;SDS011;60221;45.696;16.076;2022-10-17T01:03:11;28.00;;;14.65;;
72286;SDS011;60221;45.696;16.076;2022-10-17T01:05:37;26.95;;;15.23;;
72286;SDS011;60221;45.696;16.076;2022-10-17T01:08:06;26.80;;;15.10;;
72286;SDS011;60221;45.696;16.076;2022-10-17T01:13:35;30.05;;;15.40;;
72286;SDS011;60221;45.696;16.076;2022-10-17T01:19:16;28.77;;;14.50;;
72286;SDS011;60221;45.696;16.076;2022-10-17T01:22:22;28.70;;;15.10;;
72286;SDS011;60221;45.696;16.076;2022-10-17T01:28:31;26.85;;;15.80;;
72286;SDS011;60221;45.696;16.076;2022-10-17T01:39:09;28.02;;;15.90;;
72286;SDS011;60221;45.696;16.076;2022-10-17T01:41:55;27.10;;;13.60;;
72286;SDS011;60221;45.696;16.076;2022-10-17T01:47:26;25.02;;;14.38;;
72286;SDS011;60221;45.696;16.076;2022-10-17T01:49:58;25.10;;;14.90;;
72286;SDS011;60221;45.696;16.076;2022-10-17T01:52:32;23.50;;;13.43;;
72286;SDS011;60221;45.696;16.076;2022-10-17T01:55:15;24.30;;;12.90;;
72286;SDS011;60221;45.696;16.076;2022-10-17T01:57:49;21.82;;;12.78;;
72286;SDS011;60221;45.696;16.076;2022-10-17T02:00:22;28.10;;;14.25;;
72286;SDS011;60221;45.696;16.076;2022-10-17T02:02:52;27.53;;;13.80;;
72286;SDS011;60221;45.696;16.076;2022-10-17T02:05:25;31.20;;;15.70;;
72286;SDS011;60221;45.696;16.076;2022-10-17T02:07:55;33.60;;;17.73;;
72286;SDS011;60221;45.696;16.076;2022-10-17T02:19:14;37.38;;;18.87;;
72286;SDS011;60221;45.696;16.076;2022-10-17T02:27:42;41.45;;;20.50;;
72286;SDS011;60221;45.696;16.076;2022-10-17T02:30:22;37.13;;;19.23;;
72286;SDS011;60221;45.696;16.076;2022-10-17T02:35:42;41.40;;;20.52;;
72286;SDS011;60221;45.696;16.076;2022-10-17T02:38:13;39.27;;;19.98;;
72286;SDS011;60221;45.696;16.076;2022-10-17T02:40:41;44.90;;;21.48;;
72286;SDS011;60221;45.696;16.076;2022-10-17T02:43:11;44.57;;;20.90;;
72286;SDS011;60221;45.696;16.076;2022-10-17T02:45:39;34.75;;;17.90;;
72286;SDS011;60221;45.696;16.076;2022-10-17T02:51:11;31.05;;;16.37;;
72286;SDS011;60221;45.696;16.076;2022-10-17T02:53:48;31.65;;;16.35;;
72286;SDS011;60221;45.696;16.076;2022-10-17T02:56:17;27.90;;;15.60;;
72286;SDS011;60221;45.696;16.076;2022-10-17T02:58:47;31.62;;;17.45;;
72286;SDS011;60221;45.696;16.076;2022-10-17T03:01:17;33.00;;;16.90;;
72286;SDS011;60221;45.696;16.076;2022-10-17T03:03:45;32.20;;;17.32;;
72286;SDS011;60221;45.696;16.076;2022-10-17T03:06:12;30.48;;;15.00;;
72286;SDS011;60221;45.696;16.076;2022-10-17T03:08:38;27.27;;;14.77;;
72286;SDS011;60221;45.696;16.076;2022-10-17T03:11:04;29.63;;;15.20;;
72286;SDS011;60221;45.696;16.076;2022-10-17T03:13:31;29.95;;;16.00;;
72286;SDS011;60221;45.696;16.076;2022-10-17T03:15:58;25.08;;;13.62;;
72286;SDS011;60221;45.696;16.076;2022-10-17T03:18:25;32.17;;;15.78;;
72286;SDS011;60221;45.696;16.076;2022-10-17T03:20:53;26.03;;;14.33;;
72286;SDS011;60221;45.696;16.076;2022-10-17T03:23:19;30.02;;;16.97;;
72286;SDS011;60221;45.696;16.076;2022-10-17T03:25:46;27.48;;;15.63;;
72286;SDS011;60221;45.696;16.076;2022-10-17T03:28:12;26.30;;;15.15;;
72286;SDS011;60221;45.696;16.076;2022-10-17T03:30:39;28.83;;;16.95;;
72286;SDS011;60221;45.696;16.076;2022-10-17T03:33:05;27.70;;;16.57;;
72286;SDS011;60221;45.696;16.076;2022-10-17T03:35:31;28.83;;;16.70;;
72286;SDS011;60221;45.696;16.076;2022-10-17T03:37:58;27.30;;;16.25;;
72286;SDS011;60221;45.696;16.076;2022-10-17T03:40:25;28.93;;;15.63;;
72286;SDS011;60221;45.696;16.076;2022-10-17T03:42:51;31.87;;;17.00;;
72286;SDS011;60221;45.696;16.076;2022-10-17T03:45:17;30.97;;;15.98;;
72286;SDS011;60221;45.696;16.076;2022-10-17T03:47:44;30.68;;;15.58;;
72286;SDS011;60221;45.696;16.076;2022-10-17T03:50:10;33.97;;;20.67;;
72286;SDS011;60221;45.696;16.076;2022-10-17T03:52:37;33.00;;;19.67;;
72286;SDS011;60221;45.696;16.076;2022-10-17T03:55:04;47.15;;;28.40;;
72286;SDS011;60221;45.696;16.076;2022-10-17T03:57:33;56.67;;;36.47;;
72286;SDS011;60221;45.696;16.076;2022-10-17T04:00:03;123.22;;;70.32;;
72286;SDS011;60221;45.696;16.076;2022-10-17T04:02:32;106.45;;;59.38;;
72286;SDS011;60221;45.696;16.076;2022-10-17T04:05:00;51.13;;;28.50;;
72286;SDS011;60221;45.696;16.076;2022-10-17T04:07:26;43.50;;;23.52;;
72286;SDS011;60221;45.696;16.076;2022-10-17T04:09:53;39.83;;;18.93;;
72286;SDS011;60221;45.696;16.076;2022-10-17T04:12:21;34.18;;;16.25;;
72286;SDS011;60221;45.696;16.076;2022-10-17T04:14:47;31.25;;;16.60;;
72286;SDS011;60221;45.696;16.076;2022-10-17T04:17:13;33.10;;;17.95;;
72286;SDS011;60221;45.696;16.076;2022-10-17T04:19:39;34.23;;;17.12;;
72286;SDS011;60221;45.696;16.076;2022-10-17T04:22:05;29.63;;;15.70;;
72286;SDS011;60221;45.696;16.076;2022-10-17T04:24:34;27.77;;;14.70;;
72286;SDS011;60221;45.696;16.076;2022-10-17T04:27:05;29.65;;;15.75;;
72286;SDS011;60221;45.696;16.076;2022-10-17T04:29:33;28.62;;;17.20;;
72286;SDS011;60221;45.696;16.076;2022-10-17T04:32:01;31.77;;;17.27;;
72286;SDS011;60221;45.696;16.076;2022-10-17T04:34:32;30.13;;;16.43;;
72286;SDS011;60221;45.696;16.076;2022-10-17T04:36:58;28.65;;;16.35;;
72286;SDS011;60221;45.696;16.076;2022-10-17T04:39:25;27.45;;;15.28;;
72286;SDS011;60221;45.696;16.076;2022-10-17T04:41:52;28.70;;;15.08;;
72286;SDS011;60221;45.696;16.076;2022-10-17T04:44:18;28.40;;;15.23;;
72286;SDS011;60221;45.696;16.076;2022-10-17T04:46:47;28.23;;;16.55;;
72286;SDS011;60221;45.696;16.076;2022-10-17T04:49:13;30.43;;;17.30;;
72286;SDS011;60221;45.696;16.076;2022-10-17T04:51:41;28.30;;;15.28;;
72286;SDS011;60221;45.696;16.076;2022-10-17T04:54:09;27.02;;;16.20;;
72286;SDS011;60221;45.696;16.076;2022-10-17T04:56:36;28.17;;;16.33;;
72286;SDS011;60221;45.696;16.076;2022-10-17T04:59:02;25.10;;;14.60;;
72286;SDS011;60221;45.696;16.076;2022-10-17T05:01:29;24.77;;;16.12;;
72286;SDS011;60221;45.696;16.076;2022-10-17T05:03:55;25.10;;;14.90;;
72286;SDS011;60221;45.696;16.076;2022-10-17T05:06:22;25.67;;;15.67;;
72286;SDS011;60221;45.696;16.076;2022-10-17T05:09:06;25.40;;;14.78;;
72286;SDS011;60221;45.696;16.076;2022-10-17T05:11:32;26.10;;;15.28;;
72286;SDS011;60221;45.696;16.076;2022-10-17T05:14:00;27.22;;;15.50;;
72286;SDS011;60221;45.696;16.076;2022-10-17T05:16:28;27.13;;;14.83;;
72286;SDS011;60221;45.696;16.076;2022-10-17T05:18:55;24.75;;;15.00;;
72286;SDS011;60221;45.696;16.076;2022-10-17T05:21:26;25.75;;;15.40;;
72286;SDS011;60221;45.696;16.076;2022-10-17T05:23:54;24.45;;;14.30;;
72286;SDS011;60221;45.696;16.076;2022-10-17T05:26:21;25.02;;;15.30;;
72286;SDS011;60221;45.696;16.076;2022-10-17T05:28:48;24.03;;;15.00;;
72286;SDS011;60221;45.696;16.076;2022-10-17T05:31:17;24.45;;;14.78;;
72286;SDS011;60221;45.696;16.076;2022-10-17T05:33:44;22.42;;;13.50;;
72286;SDS011;60221;45.696;16.076;2022-10-17T05:36:11;24.82;;;14.20;;
72286;SDS011;60221;45.696;16.076;2022-10-17T05:38:38;21.90;;;14.35;;
72286;SDS011;60221;45.696;16.076;2022-10-17T05:41:04;26.33;;;14.07;;
72286;SDS011;60221;45.696;16.076;2022-10-17T05:43:32;20.95;;;13.68;;
72286;SDS011;60221;45.696;16.076;2022-10-17T05:46:01;21.82;;;13.72;;
72286;SDS011;60221;45.696;16.076;2022-10-17T05:48:30;22.48;;;14.50;;
72286;SDS011;60221;45.696;16.076;2022-10-17T05:51:06;24.07;;;14.68;;
72286;SDS011;60221;45.696;16.076;2022-10-17T05:53:35;21.73;;;14.03;;
72286;SDS011;60221;45.696;16.076;2022-10-17T05:56:08;22.62;;;14.40;;
72286;SDS011;60221;45.696;16.076;2022-10-17T05:58:43;19.70;;;13.55;;
72286;SDS011;60221;45.696;16.076;2022-10-17T06:01:12;22.07;;;14.70;;
72286;SDS011;60221;45.696;16.076;2022-10-17T06:03:38;27.07;;;15.83;;
72286;SDS011;60221;45.696;16.076;2022-10-17T06:06:06;24.77;;;16.07;;
72286;SDS011;60221;45.696;16.076;2022-10-17T06:08:38;30.43;;;17.57;;
72286;SDS011;60221;45.696;16.076;2022-10-17T06:11:05;32.48;;;18.65;;
72286;SDS011;60221;45.696;16.076;2022-10-17T06:13:32;29.60;;;19.48;;
72286;SDS011;60221;45.696;16.076;2022-10-17T06:16:00;28.38;;;18.62;;
72286;SDS011;60221;45.696;16.076;2022-10-17T06:18:27;30.23;;;18.20;;
72286;SDS011;60221;45.696;16.076;2022-10-17T06:20:53;36.83;;;22.82;;
72286;SDS011;60221;45.696;16.076;2022-10-17T06:23:29;32.70;;;21.23;;
72286;SDS011;60221;45.696;16.076;2022-10-17T06:26:02;43.33;;;25.65;;
72286;SDS011;60221;45.696;16.076;2022-10-17T06:28:30;44.00;;;25.88;;
72286;SDS011;60221;45.696;16.076;2022-10-17T06:30:57;49.60;;;26.43;;
72286;SDS011;60221;45.696;16.076;2022-10-17T06:33:23;47.65;;;26.57;;
72286;SDS011;60221;45.696;16.076;2022-10-17T06:35:50;43.70;;;24.35;;
72286;SDS011;60221;45.696;16.076;2022-10-17T06:38:19;35.68;;;21.10;;
72286;SDS011;60221;45.696;16.076;2022-10-17T06:40:47;33.38;;;20.82;;
72286;SDS011;60221;45.696;16.076;2022-10-17T06:43:14;32.77;;;19.27;;
72286;SDS011;60221;45.696;16.076;2022-10-17T06:46:00;25.82;;;16.75;;
72286;SDS011;60221;45.696;16.076;2022-10-17T06:48:28;22.95;;;14.33;;
72286;SDS011;60221;45.696;16.076;2022-10-17T06:51:00;22.90;;;15.15;;
72286;SDS011;60221;45.696;16.076;2022-10-17T06:53:30;19.05;;;13.55;;
72286;SDS011;60221;45.696;16.076;2022-10-17T06:56:07;25.67;;;16.30;;
72286;SDS011;60221;45.696;16.076;2022-10-17T06:58:40;23.50;;;14.80;;
72286;SDS011;60221;45.696;16.076;2022-10-17T07:01:09;23.77;;;15.15;;
72286;SDS011;60221;45.696;16.076;2022-10-17T07:03:38;26.30;;;20.27;;
72286;SDS011;60221;45.696;16.076;2022-10-17T07:06:05;24.50;;;15.68;;
72286;SDS011;60221;45.696;16.076;2022-10-17T07:08:32;20.73;;;14.03;;
72286;SDS011;60221;45.696;16.076;2022-10-17T07:11:14;19.85;;;13.98;;
72286;SDS011;60221;45.696;16.076;2022-10-17T07:13:44;19.95;;;14.35;;
72286;SDS011;60221;45.696;16.076;2022-10-17T07:16:13;23.25;;;16.35;;
72286;SDS011;60221;45.696;16.076;2022-10-17T07:18:42;21.65;;;14.53;;
72286;SDS011;60221;45.696;16.076;2022-10-17T07:21:09;21.17;;;14.53;;
72286;SDS011;60221;45.696;16.076;2022-10-17T07:23:37;21.50;;;14.35;;
72286;SDS011;60221;45.696;16.076;2022-10-17T07:26:06;25.05;;;15.18;;
72286;SDS011;60221;45.696;16.076;2022-10-17T07:28:40;24.18;;;16.87;;
72286;SDS011;60221;45.696;16.076;2022-10-17T07:31:22;33.98;;;25.97;;
72286;SDS011;60221;45.696;16.076;2022-10-17T07:33:49;21.80;;;15.73;;
72286;SDS011;60221;45.696;16.076;2022-10-17T07:36:16;25.43;;;16.12;;
72286;SDS011;60221;45.696;16.076;2022-10-17T07:38:43;24.92;;;16.35;;
72286;SDS011;60221;45.696;16.076;2022-10-17T07:41:10;22.80;;;15.18;;
72286;SDS011;60221;45.696;16.076;2022-10-17T07:43:38;23.77;;;16.57;;
72286;SDS011;60221;45.696;16.076;2022-10-17T07:46:07;25.67;;;16.37;;
72286;SDS011;60221;45.696;16.076;2022-10-17T07:48:36;27.13;;;17.52;;
72286;SDS011;60221;45.696;16.076;2022-10-17T07:51:04;24.00;;;16.00;;
72286;SDS011;60221;45.696;16.076;2022-10-17T07:53:34;26.23;;;16.80;;
72286;SDS011;60221;45.696;16.076;2022-10-17T07:56:04;28.90;;;18.17;;
72286;SDS011;60221;45.696;16.076;2022-10-17T07:58:33;25.50;;;16.63;;
72286;SDS011;60221;45.696;16.076;2022-10-17T08:01:02;27.22;;;17.37;;
72286;SDS011;60221;45.696;16.076;2022-10-17T08:03:31;26.40;;;17.85;;
72286;SDS011;60221;45.696;16.076;2022-10-17T08:05:58;27.40;;;18.17;;
72286;SDS011;60221;45.696;16.076;2022-10-17T08:08:27;25.83;;;16.97;;
72286;SDS011;60221;45.696;16.076;2022-10-17T08:10:54;27.05;;;17.95;;
72286;SDS011;60221;45.696;16.076;2022-10-17T08:13:22;26.02;;;16.60;;
72286;SDS011;60221;45.696;16.076;2022-10-17T08:15:49;24.85;;;16.97;;
72286;SDS011;60221;45.696;16.076;2022-10-17T08:18:15;25.00;;;16.97;;
72286;SDS011;60221;45.696;16.076;2022-10-17T08:20:42;27.98;;;17.57;;
72286;SDS011;60221;45.696;16.076;2022-10-17T08:23:09;34.95;;;17.40;;
72286;SDS011;60221;45.696;16.076;2022-10-17T08:25:37;32.63;;;18.92;;
72286;SDS011;60221;45.696;16.076;2022-10-17T08:28:04;30.97;;;19.53;;
72286;SDS011;60221;45.696;16.076;2022-10-17T08:30:31;31.77;;;20.23;;
72286;SDS011;60221;45.696;16.076;2022-10-17T08:32:58;36.90;;;21.60;;
72286;SDS011;60221;45.696;16.076;2022-10-17T08:35:24;36.13;;;23.15;;
72286;SDS011;60221;45.696;16.076;2022-10-17T08:37:50;39.07;;;22.23;;
72286;SDS011;60221;45.696;16.076;2022-10-17T08:40:20;40.60;;;24.75;;
72286;SDS011;60221;45.696;16.076;2022-10-17T08:42:56;48.20;;;25.77;;
72286;SDS011;60221;45.696;16.076;2022-10-17T08:45:32;36.20;;;22.80;;
72286;SDS011;60221;45.696;16.076;2022-10-17T08:48:24;40.63;;;25.45;;
72286;SDS011;60221;45.696;16.076;2022-10-17T08:50:59;38.73;;;23.33;;
72286;SDS011;60221;45.696;16.076;2022-10-17T08:53:28;37.42;;;24.47;;
72286;SDS011;60221;45.696;16.076;2022-10-17T08:58:51;37.95;;;23.62;;
72286;SDS011;60221;45.696;16.076;2022-10-17T09:04:33;42.60;;;23.77;;
72286;SDS011;60221;45.696;16.076;2022-10-17T09:10:12;36.63;;;21.52;;
72286;SDS011;60221;45.696;16.076;2022-10-17T09:13:02;29.87;;;21.50;;
72286;SDS011;60221;45.696;16.076;2022-10-17T09:18:42;33.93;;;20.80;;
72286;SDS011;60221;45.696;16.076;2022-10-17T09:21:23;28.45;;;18.65;;
72286;SDS011;60221;45.696;16.076;2022-10-17T09:24:08;30.75;;;18.90;;
72286;SDS011;60221;45.696;16.076;2022-10-17T09:26:37;28.55;;;17.57;;
72286;SDS011;60221;45.696;16.076;2022-10-17T09:29:09;32.03;;;20.85;;
72286;SDS011;60221;45.696;16.076;2022-10-17T09:31:44;32.87;;;19.73;;
72286;SDS011;60221;45.696;16.076;2022-10-17T09:34:19;31.82;;;18.95;;
72286;SDS011;60221;45.696;16.076;2022-10-17T09:36:47;27.02;;;17.98;;
72286;SDS011;60221;45.696;16.076;2022-10-17T09:39:15;26.70;;;16.77;;
72286;SDS011;60221;45.696;16.076;2022-10-17T09:41:53;32.53;;;19.92;;
72286;SDS011;60221;45.696;16.076;2022-10-17T09:44:24;29.20;;;18.23;;
72286;SDS011;60221;45.696;16.076;2022-10-17T09:49:51;28.30;;;17.92;;
72286;SDS011;60221;45.696;16.076;2022-10-17T09:52:20;29.63;;;19.67;;
72286;SDS011;60221;45.696;16.076;2022-10-17T09:54:55;29.20;;;17.87;;
72286;SDS011;60221;45.696;16.076;2022-10-17T09:58:01;32.17;;;18.10;;
72286;SDS011;60221;45.696;16.076;2022-10-17T10:00:29;28.07;;;17.77;;
72286;SDS011;60221;45.696;16.076;2022-10-17T10:03:15;29.98;;;17.82;;
72286;SDS011;60221;45.696;16.076;2022-10-17T10:05:57;29.10;;;17.23;;
72286;SDS011;60221;45.696;16.076;2022-10-17T10:08:33;26.82;;;16.50;;
72286;SDS011;60221;45.696;16.076;2022-10-17T10:11:06;26.90;;;16.17;;
72286;SDS011;60221;45.696;16.076;2022-10-17T10:13:34;25.70;;;16.57;;
72286;SDS011;60221;45.696;16.076;2022-10-17T10:17:01;24.55;;;16.55;;
72286;SDS011;60221;45.696;16.076;2022-10-17T10:18:44;24.87;;;15.03;;
72286;SDS011;60221;45.696;16.076;2022-10-17T10:23:45;24.20;;;14.37;;
72286;SDS011;60221;45.696;16.076;2022-10-17T10:29:25;22.60;;;14.43;;
72286;SDS011;60221;45.696;16.076;2022-10-17T10:31:58;22.77;;;12.93;;
72286;SDS011;60221;45.696;16.076;2022-10-17T10:37:46;19.80;;;11.53;;
72286;SDS011;60221;45.696;16.076;2022-10-17T10:40:26;20.00;;;12.28;;
72286;SDS011;60221;45.696;16.076;2022-10-17T10:43:01;23.00;;;13.90;;
72286;SDS011;60221;45.696;16.076;2022-10-17T10:48:21;22.52;;;13.30;;
72286;SDS011;60221;45.696;16.076;2022-10-17T10:51:03;28.27;;;15.10;;
72286;SDS011;60221;45.696;16.076;2022-10-17T10:54:02;22.30;;;13.18;;
72286;SDS011;60221;45.696;16.076;2022-10-17T10:56:33;23.85;;;14.55;;
72286;SDS011;60221;45.696;16.076;2022-10-17T11:02:13;20.65;;;11.20;;
72286;SDS011;60221;45.696;16.076;2022-10-17T11:04:55;20.70;;;12.80;;
72286;SDS011;60221;45.696;16.076;2022-10-17T11:07:39;21.93;;;12.98;;
72286;SDS011;60221;45.696;16.076;2022-10-17T11:10:30;19.65;;;12.55;;
72286;SDS011;60221;45.696;16.076;2022-10-17T11:15:52;18.12;;;12.25;;
72286;SDS011;60221;45.696;16.076;2022-10-17T11:18:32;14.30;;;9.87;;
72286;SDS011;60221;45.696;16.076;2022-10-17T11:24:06;20.35;;;12.60;;
72286;SDS011;60221;45.696;16.076;2022-10-17T11:26:33;22.17;;;12.07;;
72286;SDS011;60221;45.696;16.076;2022-10-17T11:29:08;21.42;;;12.43;;
72286;SDS011;60221;45.696;16.076;2022-10-17T11:31:38;20.30;;;11.37;;
72286;SDS011;60221;45.696;16.076;2022-10-17T11:34:17;21.90;;;11.48;;
72286;SDS011;60221;45.696;16.076;2022-10-17T11:36:53;17.67;;;10.90;;
72286;SDS011;60221;45.696;16.076;2022-10-17T11:39:37;17.37;;;10.90;;
72286;SDS011;60221;45.696;16.076;2022-10-17T11:42:08;17.40;;;10.18;;
72286;SDS011;60221;45.696;16.076;2022-10-17T11:44:38;16.70;;;9.73;;
72286;SDS011;60221;45.696;16.076;2022-10-17T11:53:00;15.03;;;9.40;;
72286;SDS011;60221;45.696;16.076;2022-10-17T11:55:40;15.30;;;9.28;;
72286;SDS011;60221;45.696;16.076;2022-10-17T11:58:16;14.60;;;8.97;;
72286;SDS011;60221;45.696;16.076;2022-10-17T12:00:53;16.75;;;10.30;;
72286;SDS011;60221;45.696;16.076;2022-10-17T12:03:56;15.00;;;8.73;;
72286;SDS011;60221;45.696;16.076;2022-10-17T12:12:44;13.27;;;7.60;;
72286;SDS011;60221;45.696;16.076;2022-10-17T12:17:53;14.05;;;8.70;;
72286;SDS011;60221;45.696;16.076;2022-10-17T12:23:03;15.90;;;9.90;;
72286;SDS011;60221;45.696;16.076;2022-10-17T12:25:33;16.97;;;8.93;;
72286;SDS011;60221;45.696;16.076;2022-10-17T12:30:53;12.58;;;7.97;;
72286;SDS011;60221;45.696;16.076;2022-10-17T12:49:47;14.98;;;8.48;;
72286;SDS011;60221;45.696;16.076;2022-10-17T12:55:04;16.90;;;8.20;;
72286;SDS011;60221;45.696;16.076;2022-10-17T13:00:42;13.03;;;8.45;;
72286;SDS011;60221;45.696;16.076;2022-10-17T13:03:31;18.50;;;7.95;;
72286;SDS011;60221;45.696;16.076;2022-10-17T13:06:04;13.50;;;7.83;;
72286;SDS011;60221;45.696;16.076;2022-10-17T13:08:33;14.10;;;8.08;;
72286;SDS011;60221;45.696;16.076;2022-10-17T13:11:07;14.35;;;7.95;;
72286;SDS011;60221;45.696;16.076;2022-10-17T13:13:40;15.20;;;8.50;;
72286;SDS011;60221;45.696;16.076;2022-10-17T13:19:12;11.00;;;7.50;;
72286;SDS011;60221;45.696;16.076;2022-10-17T13:21:48;17.32;;;7.35;;
72286;SDS011;60221;45.696;16.076;2022-10-17T13:27:02;12.13;;;7.62;;
72286;SDS011;60221;45.696;16.076;2022-10-17T13:29:31;15.72;;;7.28;;
72286;SDS011;60221;45.696;16.076;2022-10-17T13:31:59;17.47;;;9.03;;
72286;SDS011;60221;45.696;16.076;2022-10-17T13:34:29;15.53;;;8.43;;
72286;SDS011;60221;45.696;16.076;2022-10-17T13:37:01;14.53;;;8.58;;
72286;SDS011;60221;45.696;16.076;2022-10-17T13:39:33;12.25;;;7.58;;
72286;SDS011;60221;45.696;16.076;2022-10-17T13:42:04;14.28;;;7.47;;
72286;SDS011;60221;45.696;16.076;2022-10-17T13:44:34;14.10;;;7.90;;
72286;SDS011;60221;45.696;16.076;2022-10-17T13:47:00;13.15;;;7.47;;
72286;SDS011;60221;45.696;16.076;2022-10-17T13:52:02;11.85;;;6.72;;
72286;SDS011;60221;45.696;16.076;2022-10-17T13:54:34;14.03;;;7.12;;
72286;SDS011;60221;45.696;16.076;2022-10-17T13:57:05;12.57;;;7.63;;
72286;SDS011;60221;45.696;16.076;2022-10-17T13:59:46;12.18;;;7.33;;
72286;SDS011;60221;45.696;16.076;2022-10-17T14:02:24;16.45;;;8.50;;
72286;SDS011;60221;45.696;16.076;2022-10-17T14:05:10;12.65;;;7.55;;
72286;SDS011;60221;45.696;16.076;2022-10-17T14:07:40;13.88;;;8.15;;
72286;SDS011;60221;45.696;16.076;2022-10-17T14:10:29;10.70;;;7.00;;
72286;SDS011;60221;45.696;16.076;2022-10-17T14:12:58;11.65;;;7.40;;
72286;SDS011;60221;45.696;16.076;2022-10-17T14:15:29;11.88;;;6.65;;
72286;SDS011;60221;45.696;16.076;2022-10-17T14:18:04;14.38;;;7.90;;
72286;SDS011;60221;45.696;16.076;2022-10-17T14:20:30;13.40;;;6.90;;
72286;SDS011;60221;45.696;16.076;2022-10-17T14:22:58;12.63;;;7.20;;
72286;SDS011;60221;45.696;16.076;2022-10-17T14:25:35;11.18;;;7.12;;
72286;SDS011;60221;45.696;16.076;2022-10-17T14:33:23;11.45;;;7.42;;
72286;SDS011;60221;45.696;16.076;2022-10-17T14:35:54;11.87;;;7.53;;
72286;SDS011;60221;45.696;16.076;2022-10-17T14:38:23;12.93;;;7.90;;
72286;SDS011;60221;45.696;16.076;2022-10-17T14:40:54;11.53;;;7.15;;
72286;SDS011;60221;45.696;16.076;2022-10-17T14:43:27;13.35;;;7.30;;
72286;SDS011;60221;45.696;16.076;2022-10-17T14:45:56;12.40;;;7.30;;
72286;SDS011;60221;45.696;16.076;2022-10-17T14:48:25;12.33;;;7.50;;
72286;SDS011;60221;45.696;16.076;2022-10-17T14:53:43;12.35;;;7.97;;
72286;SDS011;60221;45.696;16.076;2022-10-17T14:56:36;12.55;;;8.53;;
72286;SDS011;60221;45.696;16.076;2022-10-17T14:59:05;14.18;;;8.35;;
72286;SDS011;60221;45.696;16.076;2022-10-17T15:01:33;13.63;;;8.40;;
72286;SDS011;60221;45.696;16.076;2022-10-17T15:03:59;16.37;;;8.58;;
72286;SDS011;60221;45.696;16.076;2022-10-17T15:06:26;13.80;;;8.25;;
72286;SDS011;60221;45.696;16.076;2022-10-17T15:08:59;14.13;;;8.55;;
72286;SDS011;60221;45.696;16.076;2022-10-17T15:11:26;16.45;;;9.15;;
72286;SDS011;60221;45.696;16.076;2022-10-17T15:13:53;16.10;;;9.90;;
72286;SDS011;60221;45.696;16.076;2022-10-17T15:18:50;11.83;;;8.35;;
72286;SDS011;60221;45.696;16.076;2022-10-17T15:21:19;14.95;;;9.20;;
72286;SDS011;60221;45.696;16.076;2022-10-17T15:23:48;15.15;;;9.33;;
72286;SDS011;60221;45.696;16.076;2022-10-17T15:26:23;18.60;;;10.53;;
72286;SDS011;60221;45.696;16.076;2022-10-17T15:28:52;19.85;;;10.40;;
72286;SDS011;60221;45.696;16.076;2022-10-17T15:31:20;16.52;;;9.53;;
72286;SDS011;60221;45.696;16.076;2022-10-17T15:33:48;25.97;;;11.93;;
72286;SDS011;60221;45.696;16.076;2022-10-17T15:38:53;22.87;;;12.60;;
72286;SDS011;60221;45.696;16.076;2022-10-17T15:41:24;24.23;;;11.85;;
72286;SDS011;60221;45.696;16.076;2022-10-17T15:43:52;25.72;;;11.95;;
72286;SDS011;60221;45.696;16.076;2022-10-17T15:46:26;20.12;;;11.40;;
72286;SDS011;60221;45.696;16.076;2022-10-17T15:49:00;21.85;;;11.45;;
72286;SDS011;60221;45.696;16.076;2022-10-17T15:51:31;17.53;;;10.20;;
72286;SDS011;60221;45.696;16.076;2022-10-17T15:53:58;20.40;;;10.98;;
72286;SDS011;60221;45.696;16.076;2022-10-17T15:56:30;25.70;;;12.58;;
72286;SDS011;60221;45.696;16.076;2022-10-17T15:59:03;26.17;;;12.60;;
72286;SDS011;60221;45.696;16.076;2022-10-17T16:01:34;44.00;;;18.80;;
72286;SDS011;60221;45.696;16.076;2022-10-17T16:04:00;36.83;;;16.07;;
72286;SDS011;60221;45.696;16.076;2022-10-17T16:06:26;48.60;;;22.60;;
72286;SDS011;60221;45.696;16.076;2022-10-17T16:08:53;35.33;;;17.48;;
72286;SDS011;60221;45.696;16.076;2022-10-17T16:11:25;36.65;;;17.32;;
72286;SDS011;60221;45.696;16.076;2022-10-17T16:13:54;34.35;;;17.37;;
72286;SDS011;60221;45.696;16.076;2022-10-17T16:16:24;28.93;;;15.23;;
72286;SDS011;60221;45.696;16.076;2022-10-17T16:18:51;21.40;;;11.90;;
72286;SDS011;60221;45.696;16.076;2022-10-17T16:21:18;24.05;;;11.38;;
72286;SDS011;60221;45.696;16.076;2022-10-17T16:23:49;21.62;;;11.25;;
72286;SDS011;60221;45.696;16.076;2022-10-17T16:26:16;62.98;;;29.02;;
72286;SDS011;60221;45.696;16.076;2022-10-17T16:28:43;95.93;;;45.73;;
72286;SDS011;60221;45.696;16.076;2022-10-17T16:33:49;281.73;;;131.43;;
72286;SDS011;60221;45.696;16.076;2022-10-17T16:36:18;200.22;;;97.30;;
72286;SDS011;60221;45.696;16.076;2022-10-17T16:38:45;73.83;;;37.08;;
72286;SDS011;60221;45.696;16.076;2022-10-17T16:44:04;22.52;;;13.70;;
72286;SDS011;60221;45.696;16.076;2022-10-17T16:46:34;18.85;;;12.58;;
72286;SDS011;60221;45.696;16.076;2022-10-17T16:49:02;22.15;;;12.68;;
72286;SDS011;60221;45.696;16.076;2022-10-17T16:51:30;27.40;;;13.48;;
72286;SDS011;60221;45.696;16.076;2022-10-17T16:53:58;21.07;;;12.70;;
72286;SDS011;60221;45.696;16.076;2022-10-17T16:56:24;25.77;;;14.50;;
72286;SDS011;60221;45.696;16.076;2022-10-17T16:58:54;23.87;;;13.65;;